createdAt,value
2018-10-03T00:01:57.316Z,100821.44
2018-10-03T00:04:25.694Z,100838.36
2018-10-03T00:06:54.072Z,100844.42
2018-10-03T00:09:22.441Z,100844.52
2018-10-03T00:11:50.889Z,100831.33
2018-10-03T00:14:19.276Z,100845.95
2018-10-03T00:16:47.637Z,100845.08
2018-10-03T00:19:16.001Z,100852.14
2018-10-03T00:21:44.353Z,100830.94
2018-10-03T00:24:12.709Z,100817.27
2018-10-03T00:26:42.157Z,100831.54
2018-10-03T00:29:10.534Z,100841.03
2018-10-03T00:31:38.888Z,100842.50
2018-10-03T00:34:07.252Z,100870.48
2018-10-03T00:36:35.645Z,100848.75
2018-10-03T00:39:07.009Z,100833.20
2018-10-03T00:41:35.356Z,100846.52
2018-10-03T00:44:03.694Z,100839.41
2018-10-03T00:46:32.076Z,100850.44
2018-10-03T00:49:00.425Z,100859.38
2018-10-03T00:51:28.763Z,100844.98
2018-10-03T00:53:57.109Z,100837.34
2018-10-03T00:56:25.467Z,100861.72
2018-10-03T00:58:53.826Z,100851.58
2018-10-03T01:01:22.176Z,100852.36
2018-10-03T01:03:50.553Z,100834.55
2018-10-03T01:06:18.892Z,100867.37
2018-10-03T01:08:47.605Z,100858.97
2018-10-03T01:11:15.916Z,100877.16
2018-10-03T01:13:44.256Z,100860.84
2018-10-03T01:16:12.605Z,100865.09
2018-10-03T01:18:40.933Z,100838.16
2018-10-03T01:21:09.317Z,100848.83
2018-10-03T01:23:37.668Z,100838.35
2018-10-03T01:26:06.075Z,100860.80
2018-10-03T01:28:34.400Z,100833.05
2018-10-03T01:31:02.744Z,100866.20
2018-10-03T01:33:31.092Z,100835.12
2018-10-03T01:35:59.475Z,100850.89
2018-10-03T01:38:27.854Z,100855.88
2018-10-03T01:40:56.205Z,100867.43
2018-10-03T01:43:24.561Z,100858.00
2018-10-03T01:45:53.021Z,100869.44
2018-10-03T01:48:21.381Z,100897.81
2018-10-03T01:50:50.811Z,100892.84
2018-10-03T01:53:19.152Z,100886.74
2018-10-03T01:55:47.515Z,100904.27
2018-10-03T01:58:15.890Z,100911.16
2018-10-03T02:00:44.244Z,100910.31
2018-10-03T02:03:12.721Z,100905.93
2018-10-03T02:05:41.081Z,100912.23
2018-10-03T02:08:09.421Z,100914.85
2018-10-03T02:10:37.787Z,100921.84
2018-10-03T02:13:06.260Z,100920.05
2018-10-03T02:15:34.605Z,100930.90
2018-10-03T02:18:04.025Z,100932.91
2018-10-03T02:20:32.434Z,100931.62
2018-10-03T02:23:00.796Z,100940.30
2018-10-03T02:25:29.158Z,100935.29
2018-10-03T02:27:57.540Z,100950.62
2018-10-03T02:30:25.942Z,100956.83
2018-10-03T02:32:56.332Z,100942.32
2018-10-03T02:35:24.721Z,100949.56
2018-10-03T02:37:53.057Z,100943.28
2018-10-03T02:40:21.433Z,100947.67
2018-10-03T02:42:49.797Z,100951.13
2018-10-03T02:45:20.754Z,100952.53
2018-10-03T02:47:51.855Z,100954.34
2018-10-03T02:50:20.522Z,100948.48
2018-10-03T02:52:48.825Z,100952.44
2018-10-03T02:55:17.206Z,100944.58
2018-10-03T02:57:45.806Z,100948.48
2018-10-03T03:00:14.177Z,100949.31
2018-10-03T03:02:42.573Z,100954.36
2018-10-03T03:05:11.022Z,100962.31
2018-10-03T03:07:39.401Z,100969.11
2018-10-03T03:10:07.841Z,100977.42
2018-10-03T03:12:36.189Z,100989.34
2018-10-03T03:15:04.609Z,100987.42
2018-10-03T03:17:33.000Z,100987.32
2018-10-03T03:20:01.352Z,101001.59
2018-10-03T03:22:31.758Z,100990.39
2018-10-03T03:25:00.116Z,101002.17
2018-10-03T03:27:28.460Z,101000.86
2018-10-03T03:29:57.929Z,101010.39
2018-10-03T03:32:26.307Z,101008.12
2018-10-03T03:34:54.693Z,101003.14
2018-10-03T03:37:23.236Z,101018.70
2018-10-03T03:39:51.597Z,101021.92
2018-10-03T03:42:20.019Z,101023.36
2018-10-03T03:44:48.412Z,101008.98
2018-10-03T03:47:16.797Z,101033.13
2018-10-03T03:49:45.170Z,101030.02
2018-10-03T03:52:14.570Z,101038.25
2018-10-03T03:54:42.931Z,101050.52
2018-10-03T03:57:11.287Z,101047.30
2018-10-03T03:59:39.673Z,101058.13
2018-10-03T04:02:08.075Z,101052.30
2018-10-03T04:04:36.505Z,101068.26
2018-10-03T04:07:04.877Z,101066.70
2018-10-03T04:09:34.264Z,101073.58
2018-10-03T04:12:02.604Z,101065.94
2018-10-03T04:14:33.063Z,101063.92
2018-10-03T04:17:01.421Z,101075.45
2018-10-03T04:19:29.820Z,101073.19
2018-10-03T04:21:58.178Z,101069.15
2018-10-03T04:24:26.564Z,101079.83
2018-10-03T04:26:54.896Z,101088.88
2018-10-03T04:29:23.301Z,101096.70
2018-10-03T04:31:51.668Z,101096.23
2018-10-03T04:34:20.043Z,101104.23
2018-10-03T04:36:48.425Z,101115.03
2018-10-03T04:39:16.789Z,101109.41
2018-10-03T04:41:45.128Z,101116.41
2018-10-03T04:44:13.488Z,101124.52
2018-10-03T04:46:41.836Z,101128.33
2018-10-03T04:49:10.211Z,101124.16
2018-10-03T04:51:38.577Z,101127.39
2018-10-03T04:54:07.045Z,101138.45
2018-10-03T04:56:35.745Z,101136.77
2018-10-03T04:59:04.384Z,101145.92
2018-10-03T05:01:32.725Z,101159.98
2018-10-03T05:04:01.174Z,101160.88
2018-10-03T05:06:29.599Z,101165.43
2018-10-03T05:08:57.957Z,101175.27
2018-10-03T05:11:26.403Z,101183.39
2018-10-03T05:13:54.713Z,101183.57
2018-10-03T05:16:23.061Z,101190.47
2018-10-03T05:18:51.431Z,101198.41
2018-10-03T05:21:19.782Z,101198.44
2018-10-03T05:23:48.136Z,101207.80
2018-10-03T05:26:16.484Z,101214.59
2018-10-03T05:28:44.836Z,101216.17
2018-10-03T05:31:13.180Z,101224.18
2018-10-03T05:33:41.574Z,101228.98
2018-10-03T05:36:09.980Z,101219.83
2018-10-03T05:38:38.309Z,101231.28
2018-10-03T05:41:07.732Z,101238.42
2018-10-03T05:43:36.079Z,101244.88
2018-10-03T05:46:04.441Z,101246.90
2018-10-03T05:49:36.380Z,101254.94
2018-10-03T05:52:04.769Z,101264.74
2018-10-03T05:54:33.194Z,101259.81
2018-10-03T05:57:02.656Z,101276.08
2018-10-03T05:59:31.019Z,101281.52
2018-10-03T06:01:59.481Z,101284.33
2018-10-03T06:04:27.982Z,101293.92
2018-10-03T06:06:56.355Z,101288.06
2018-10-03T06:09:24.729Z,101298.37
2018-10-03T06:11:53.105Z,101301.83
2018-10-03T06:14:22.480Z,101310.98
2018-10-03T06:16:50.833Z,101314.00
2018-10-03T06:19:19.310Z,101324.75
2018-10-03T06:21:47.720Z,101317.97
2018-10-03T06:24:16.062Z,101325.69
2018-10-03T06:26:44.436Z,101343.78
2018-10-03T06:29:12.812Z,101350.37
2018-10-03T06:31:41.164Z,101345.13
2018-10-03T06:34:09.532Z,101354.61
2018-10-03T06:36:37.913Z,101353.89
2018-10-03T06:39:08.213Z,101365.33
2018-10-03T06:41:37.625Z,101366.84
2018-10-03T06:44:05.993Z,101380.42
2018-10-03T06:46:35.405Z,101382.23
2018-10-03T06:49:03.873Z,101382.50
2018-10-03T06:51:32.261Z,101363.87
2018-10-03T06:54:00.684Z,101407.19
2018-10-03T06:56:29.338Z,101406.06
2018-10-03T06:58:57.899Z,101412.11
2018-10-03T07:01:26.268Z,101418.51
2018-10-03T07:03:54.680Z,101417.13
2018-10-03T07:06:23.073Z,101421.89
2018-10-03T07:08:51.485Z,101434.80
2018-10-03T07:11:19.882Z,101439.98
2018-10-03T07:13:48.241Z,101451.25
2018-10-03T07:16:16.892Z,101456.28
2018-10-03T07:18:45.257Z,101454.97
2018-10-03T07:21:13.626Z,101456.31
2018-10-03T07:23:41.989Z,101470.80
2018-10-03T07:26:11.030Z,101470.13
2018-10-03T07:28:39.375Z,101470.41
2018-10-03T07:31:07.909Z,101476.78
2018-10-03T07:33:36.329Z,101479.30
2018-10-03T07:36:04.977Z,101479.38
2018-10-03T07:38:33.317Z,101490.34
2018-10-03T07:41:01.696Z,101511.55
2018-10-03T07:43:32.085Z,101513.67
2018-10-03T07:46:00.481Z,101508.33
2018-10-03T07:48:28.849Z,101508.93
2018-10-03T07:50:57.216Z,101519.98
2018-10-03T07:53:26.052Z,101522.00
2018-10-03T07:55:54.394Z,101530.74
2018-10-03T07:58:22.775Z,101548.13
2018-10-03T08:00:51.124Z,101553.26
2018-10-03T08:03:20.596Z,101571.80
2018-10-03T08:05:49.928Z,101569.50
2018-10-03T08:08:18.292Z,101572.16
2018-10-03T08:10:46.640Z,101588.05
2018-10-03T08:13:16.028Z,101589.61
2018-10-03T08:15:44.424Z,101591.27
2018-10-03T08:18:12.787Z,101582.69
2018-10-03T08:20:41.140Z,101595.82
2018-10-03T08:23:09.548Z,101593.65
2018-10-03T08:25:37.940Z,101603.46
2018-10-03T08:28:06.573Z,101609.92
2018-10-03T08:30:34.924Z,101625.20
2018-10-03T08:33:03.336Z,101618.28
2018-10-03T08:35:31.657Z,101628.91
2018-10-03T08:38:00.068Z,101629.62
2018-10-03T08:40:28.420Z,101631.65
2018-10-03T08:42:57.104Z,101637.63
2018-10-03T08:45:25.491Z,101629.86
2018-10-03T08:47:53.859Z,101638.48
2018-10-03T08:50:22.225Z,101646.47
2018-10-03T08:52:50.625Z,101651.38
2018-10-03T08:55:19.161Z,101655.30
2018-10-03T08:57:47.557Z,101656.09
2018-10-03T09:00:15.913Z,101651.09
2018-10-03T09:02:44.308Z,101669.63
2018-10-03T09:05:13.361Z,101661.48
2018-10-03T09:07:41.800Z,101669.95
2018-10-03T09:10:10.355Z,101681.22
2018-10-03T09:12:38.903Z,101682.80
2018-10-03T09:15:08.685Z,101688.63
2018-10-03T09:17:38.372Z,101685.91
2018-10-03T09:20:06.915Z,101689.95
2018-10-03T09:22:37.409Z,101682.31
2018-10-03T09:25:05.836Z,101700.02
2018-10-03T09:27:34.296Z,101705.73
2018-10-03T09:30:02.677Z,101705.36
2018-10-03T09:32:32.117Z,101702.83
2018-10-03T09:35:00.497Z,101724.67
2018-10-03T09:37:28.865Z,101727.86
2018-10-03T09:39:57.315Z,101723.41
2018-10-03T09:42:25.791Z,101725.56
2018-10-03T09:44:54.189Z,101729.20
2018-10-03T09:47:22.611Z,101726.92
2018-10-03T09:49:50.973Z,101738.55
2018-10-03T09:52:19.328Z,101753.25
2018-10-03T09:54:48.787Z,101743.20
2018-10-03T09:57:18.219Z,101758.16
2018-10-03T09:59:46.636Z,101763.86
2018-10-03T10:02:15.037Z,101758.64
2018-10-03T10:04:43.401Z,101764.81
2018-10-03T10:07:12.092Z,101766.89
2018-10-03T10:09:40.445Z,101759.55
2018-10-03T10:12:08.809Z,101780.91
2018-10-03T10:14:37.283Z,101784.25
2018-10-03T10:17:05.724Z,101793.23
2018-10-03T10:19:34.060Z,101801.76
2018-10-03T10:22:02.541Z,101799.14
2018-10-03T10:24:30.908Z,101813.92
2018-10-03T10:26:59.301Z,101813.28
2018-10-03T10:32:18.351Z,101812.39
2018-10-03T10:34:46.690Z,101812.95
2018-10-03T10:37:14.990Z,101805.88
2018-10-03T10:39:43.375Z,101810.65
2018-10-03T10:42:11.778Z,101816.99
2018-10-03T10:44:40.106Z,101811.47
2018-10-03T10:47:08.561Z,101826.89
2018-10-03T10:49:37.047Z,101832.86
2018-10-03T10:52:05.404Z,101833.92
2018-10-03T10:54:33.812Z,101825.36
2018-10-03T10:57:02.176Z,101839.23
2018-10-03T10:59:31.494Z,101854.27
2018-10-03T11:01:59.868Z,101841.31
2018-10-03T11:04:28.221Z,101852.11
2018-10-03T11:06:56.594Z,101848.11
2018-10-03T11:09:24.948Z,101855.92
2018-10-03T11:11:53.287Z,101852.58
2018-10-03T11:14:21.641Z,101860.48
2018-10-03T11:16:50.052Z,101868.25
2018-10-03T11:19:18.431Z,101866.88
2018-10-03T11:21:46.781Z,101868.20
2018-10-03T11:24:15.334Z,101862.45
2018-10-03T11:26:43.538Z,101874.75
2018-10-03T11:29:11.888Z,101882.44
2018-10-03T11:31:40.237Z,101882.11
2018-10-03T11:34:08.566Z,101879.95
2018-10-03T11:36:36.944Z,101902.99
2018-10-03T11:39:07.513Z,101884.02
2018-10-03T11:41:36.280Z,101889.72
2018-10-03T11:44:04.630Z,101885.23
2018-10-03T11:46:32.970Z,101888.15
2018-10-03T11:49:01.924Z,101876.06
2018-10-03T11:51:30.269Z,101891.20
2018-10-03T11:53:58.605Z,101908.45
2018-10-03T11:56:27.544Z,101899.88
2018-10-03T11:58:55.880Z,101901.32
2018-10-03T12:01:24.244Z,101900.67
2018-10-03T12:03:52.641Z,101896.85
2018-10-03T12:06:21.089Z,101899.70
2018-10-03T12:08:49.380Z,101916.97
2018-10-03T12:11:17.825Z,101905.59
2018-10-03T12:13:46.251Z,101909.25
2018-10-03T12:16:14.540Z,101890.66
2018-10-03T12:18:42.965Z,101912.04
2018-10-03T12:21:11.321Z,101912.73
2018-10-03T12:23:39.772Z,101919.38
2018-10-03T12:26:08.269Z,101924.52
2018-10-03T12:28:37.553Z,101927.97
2018-10-03T12:31:05.936Z,101926.05
2018-10-03T12:33:34.488Z,101925.91
2018-10-03T12:36:02.983Z,101935.13
2018-10-03T12:38:32.421Z,101935.77
2018-10-03T12:41:00.755Z,101948.80
2018-10-03T12:43:29.112Z,101959.10
2018-10-03T12:45:57.435Z,101958.66
2018-10-03T12:48:25.787Z,101980.21
2018-10-03T12:50:54.132Z,101977.59
2018-10-03T12:53:22.673Z,101974.46
2018-10-03T12:55:51.025Z,101984.61
2018-10-03T12:58:19.372Z,101968.23
2018-10-03T13:00:48.731Z,101972.79
2018-10-03T13:03:18.147Z,101982.93
2018-10-03T13:05:46.501Z,101992.20
2018-10-03T13:08:14.881Z,101995.43
2018-10-03T13:13:34.836Z,102010.39
2018-10-03T13:16:03.197Z,102015.43
2018-10-03T13:18:31.760Z,102006.34
2018-10-03T13:21:00.149Z,102014.94
2018-10-03T13:23:28.629Z,102010.78
2018-10-03T13:25:56.984Z,102010.41
2018-10-03T13:28:25.569Z,102009.93
2018-10-03T13:30:54.049Z,101992.44
2018-10-03T13:33:22.424Z,101988.84
2018-10-03T13:35:51.040Z,102017.66
2018-10-03T13:38:19.467Z,102006.56
2018-10-03T13:40:47.948Z,102002.70
2018-10-03T13:43:16.288Z,102008.94
2018-10-03T13:45:44.728Z,102006.31
2018-10-03T13:48:13.153Z,102013.64
2018-10-03T13:50:41.570Z,102009.58
2018-10-03T13:53:09.973Z,102024.39
2018-10-03T13:55:38.357Z,102022.12
2018-10-03T14:05:16.580Z,102028.50
2018-10-03T14:07:46.924Z,102033.52
2018-10-03T14:10:15.276Z,102035.80
2018-10-03T14:12:43.627Z,102030.23
2018-10-03T14:15:12.028Z,102029.56
2018-10-03T14:17:40.392Z,102035.45
2018-10-03T14:20:08.768Z,102037.22
2018-10-03T14:22:37.125Z,102048.73
2018-10-03T14:25:05.914Z,102042.12
2018-10-03T14:27:35.445Z,102043.71
2018-10-03T14:30:03.837Z,102041.78
2018-10-03T14:32:32.201Z,102032.69
2018-10-03T14:35:02.615Z,102067.83
2018-10-03T14:37:30.941Z,102060.31
2018-10-03T14:39:59.329Z,102066.02
2018-10-03T14:42:27.681Z,102070.86
2018-10-03T14:44:56.061Z,102076.30
2018-10-03T14:47:25.022Z,102047.37
2018-10-03T14:49:53.370Z,102084.06
2018-10-03T14:52:21.844Z,102072.02
2018-10-03T14:54:50.134Z,102075.86
2018-10-03T14:57:18.661Z,102072.82
2018-10-03T14:59:47.036Z,102076.92
2018-10-03T15:02:15.397Z,102078.88
2018-10-03T15:04:43.788Z,102066.59
2018-10-03T15:07:12.141Z,102091.13
2018-10-03T15:09:40.513Z,102099.34
2018-10-03T15:12:09.224Z,102099.19
2018-10-03T15:14:37.587Z,102105.77
2018-10-03T15:17:06.153Z,102091.03
2018-10-03T15:19:34.554Z,102080.36
2018-10-03T15:22:02.920Z,102080.06
2018-10-03T15:24:31.289Z,102074.10
2018-10-03T15:26:59.740Z,102086.09
2018-10-03T15:29:28.284Z,102078.59
2018-10-03T15:31:56.633Z,102079.30
2018-10-03T15:34:25.245Z,102093.31
2018-10-03T15:36:53.773Z,102101.49
2018-10-03T15:39:22.121Z,102107.67
2018-10-03T15:41:50.568Z,102104.60
2018-10-03T15:44:18.949Z,102109.64
2018-10-03T15:46:47.451Z,102114.97
2018-10-03T15:49:16.788Z,102116.81
2018-10-03T15:51:45.912Z,102103.84
2018-10-03T15:54:14.280Z,102111.56
2018-10-03T15:56:42.977Z,102118.41
2018-10-03T15:59:11.376Z,102124.55
2018-10-03T16:01:41.052Z,102121.86
2018-10-03T16:04:09.824Z,102118.45
2018-10-03T16:06:38.157Z,102113.73
2018-10-03T16:09:07.562Z,102122.88
2018-10-03T16:11:35.953Z,102134.39
2018-10-03T16:14:04.317Z,102135.08
2018-10-03T16:16:32.696Z,102128.58
2018-10-03T16:19:01.057Z,102135.73
2018-10-03T16:21:29.409Z,102137.93
2018-10-03T16:23:58.141Z,102132.56
2018-10-03T16:26:26.582Z,102128.95
2018-10-03T16:28:55.860Z,102136.51
2018-10-03T16:31:24.242Z,102135.48
2018-10-03T16:33:52.580Z,102129.73
2018-10-03T16:36:20.976Z,102130.48
2018-10-03T16:38:49.389Z,102131.69
2018-10-03T16:41:18.799Z,102133.58
2018-10-03T16:43:47.124Z,102144.35
2018-10-03T16:46:15.592Z,102162.77
2018-10-03T16:48:44.255Z,102146.69
2018-10-03T16:51:13.633Z,102148.52
2018-10-03T16:53:42.023Z,102146.28
2018-10-03T16:56:11.150Z,102165.31
2018-10-03T16:58:39.492Z,102153.06
2018-10-03T17:01:09.168Z,102159.84
2018-10-03T17:03:37.535Z,102147.88
2018-10-03T17:06:05.855Z,102152.05
2018-10-03T17:08:34.192Z,102165.64
2018-10-03T17:11:02.524Z,102167.34
2018-10-03T17:13:32.923Z,102167.50
2018-10-03T17:16:01.564Z,102162.83
2018-10-03T17:18:29.912Z,102177.84
2018-10-03T17:20:59.293Z,102177.48
2018-10-03T17:23:28.961Z,102173.17
2018-10-03T17:25:57.313Z,102175.44
2018-10-03T17:28:25.716Z,102170.25
2018-10-03T17:30:54.141Z,102182.36
2018-10-03T17:33:22.533Z,102183.31
2018-10-03T17:35:52.001Z,102182.05
2018-10-03T17:38:21.571Z,102187.95
2018-10-03T17:40:49.959Z,102186.30
2018-10-03T17:43:18.324Z,102194.77
2018-10-03T17:45:46.694Z,102200.38
2018-10-03T17:48:15.054Z,102197.92
2018-10-03T17:50:43.444Z,102203.00
2018-10-03T17:53:11.792Z,102207.32
2018-10-03T17:55:40.171Z,102207.42
2018-10-03T17:58:08.549Z,102212.57
2018-10-03T18:00:36.909Z,102217.61
2018-10-03T18:03:06.105Z,102218.08
2018-10-03T18:05:34.437Z,102214.42
2018-10-03T18:08:02.781Z,102227.84
2018-10-03T18:10:31.136Z,102226.89
2018-10-03T18:12:59.468Z,102230.95
2018-10-03T18:15:27.798Z,102231.78
2018-10-03T18:17:56.149Z,102226.66
2018-10-03T18:20:24.492Z,102232.78
2018-10-03T18:22:53.419Z,102245.74
2018-10-03T18:25:21.769Z,102236.81
2018-10-03T18:27:51.248Z,102241.07
2018-10-03T18:30:21.577Z,102243.12
2018-10-03T18:32:49.940Z,102242.50
2018-10-03T18:35:18.352Z,102245.92
2018-10-03T18:37:46.907Z,102247.07
2018-10-03T18:40:15.235Z,102250.08
2018-10-03T18:42:43.612Z,102250.06
2018-10-03T18:45:12.985Z,102251.94
2018-10-03T18:47:41.344Z,102257.46
2018-10-03T18:50:09.717Z,102263.17
2018-10-03T18:52:39.140Z,102262.44
2018-10-03T18:55:07.511Z,102265.80
2018-10-03T18:57:35.900Z,102265.70
2018-10-03T19:00:04.275Z,102262.66
2018-10-03T19:02:32.642Z,102262.09
2018-10-03T19:05:00.964Z,102268.05
2018-10-03T19:07:29.357Z,102267.78
2018-10-03T19:09:58.826Z,102274.42
2018-10-03T19:12:27.389Z,102284.74
2018-10-03T19:14:56.818Z,102282.70
2018-10-03T19:17:25.173Z,102281.09
2018-10-03T19:19:53.798Z,102283.33
2018-10-03T19:22:22.140Z,102279.86
2018-10-03T19:24:50.501Z,102281.94
2018-10-03T19:27:18.885Z,102279.67
2018-10-03T19:29:47.249Z,102281.39
2018-10-03T19:32:16.314Z,102281.29
2018-10-03T19:34:44.676Z,102281.39
2018-10-03T19:37:13.032Z,102281.75
2018-10-03T19:39:41.445Z,102281.77
2018-10-03T19:42:09.865Z,102291.48
2018-10-03T19:44:38.188Z,102292.06
2018-10-03T19:47:06.645Z,102290.75
2018-10-03T19:49:35.013Z,102293.94
2018-10-03T19:52:03.356Z,102295.73
2018-10-03T19:54:32.530Z,102292.44
2018-10-03T19:57:05.788Z,102299.20
2018-10-03T19:59:36.347Z,102300.71
2018-10-03T20:02:04.706Z,102300.34
2018-10-03T20:04:33.084Z,102292.00
2018-10-03T20:07:02.512Z,102295.06
2018-10-03T20:09:31.880Z,102300.04
2018-10-03T20:12:00.523Z,102306.42
2018-10-03T20:14:28.952Z,102301.75
2018-10-03T20:16:57.485Z,102310.27
2018-10-03T20:19:25.829Z,102311.00
2018-10-03T20:21:54.220Z,102313.98
2018-10-03T20:24:22.569Z,102307.27
2018-10-03T20:26:51.114Z,102317.19
2018-10-03T20:29:19.488Z,102319.23
2018-10-03T20:31:48.937Z,102318.59
2018-10-03T20:34:17.355Z,102323.56
2018-10-03T20:36:45.711Z,102320.08
2018-10-03T20:39:15.073Z,102314.42
2018-10-03T20:41:45.198Z,102317.16
2018-10-03T20:44:13.638Z,102317.33
2018-10-03T20:46:42.014Z,102322.39
2018-10-03T20:49:10.431Z,102320.69
2018-10-03T20:51:38.813Z,102326.48
2018-10-03T20:54:07.250Z,102326.00
2018-10-03T20:56:35.586Z,102321.78
2018-10-03T20:59:04.053Z,102320.31
2018-10-03T21:01:32.396Z,102317.50
2018-10-03T21:04:00.749Z,102313.83
2018-10-03T21:06:29.912Z,102307.91
2018-10-03T21:08:58.327Z,102307.00
2018-10-03T21:11:26.739Z,102309.78
2018-10-03T21:13:55.165Z,102310.45
2018-10-03T21:16:23.529Z,102308.97
2018-10-03T21:18:51.874Z,102309.22
2018-10-03T21:21:20.273Z,102309.05
2018-10-03T21:23:48.633Z,102310.08
2018-10-03T21:26:16.984Z,102316.28
2018-10-03T21:28:45.376Z,102315.98
2018-10-03T21:31:13.773Z,102325.36
2018-10-03T21:33:42.213Z,102324.00
2018-10-03T21:38:56.952Z,102319.55
2018-10-03T21:41:25.325Z,102308.48
2018-10-03T21:43:53.668Z,102318.83
2018-10-03T21:46:22.081Z,102307.74
2018-10-03T21:48:50.446Z,102322.27
2018-10-03T21:51:18.866Z,102313.03
2018-10-03T21:53:47.275Z,102316.38
2018-10-03T21:56:15.649Z,102314.34
2018-10-03T21:58:44.001Z,102330.81
2018-10-03T22:01:12.389Z,102317.53
2018-10-03T22:03:40.880Z,102321.84
2018-10-03T22:06:10.220Z,102313.66
2018-10-03T22:08:38.632Z,102314.11
2018-10-03T22:11:09.054Z,102321.17
2018-10-03T22:13:37.422Z,102316.31
2018-10-03T22:16:05.812Z,102321.36
2018-10-03T22:18:37.445Z,102318.80
2018-10-03T22:21:05.871Z,102326.06
2018-10-03T22:23:34.492Z,102329.27
2018-10-03T22:26:02.844Z,102333.95
2018-10-03T22:28:31.186Z,102336.03
2018-10-03T22:30:59.565Z,102321.59
2018-10-03T22:33:27.909Z,102330.86
2018-10-03T22:35:56.319Z,102314.99
2018-10-03T22:38:24.689Z,102316.97
2018-10-03T22:40:53.232Z,102329.42
2018-10-03T22:43:21.589Z,102330.33
2018-10-03T22:45:50.166Z,102313.97
2018-10-03T22:48:18.521Z,102325.97
2018-10-03T22:50:46.865Z,102310.69
2018-10-03T22:53:16.361Z,102317.34
2018-10-03T22:55:44.716Z,102310.41
2018-10-03T22:58:13.078Z,102319.70
2018-10-03T23:00:41.436Z,102318.68
2018-10-03T23:03:10.073Z,102330.83
2018-10-03T23:05:38.436Z,102336.94
2018-10-03T23:08:06.813Z,102331.30
2018-10-03T23:10:35.166Z,102327.48
2018-10-03T23:13:03.520Z,102328.70
2018-10-03T23:15:31.869Z,102329.75
2018-10-03T23:18:00.176Z,102317.38
2018-10-03T23:20:28.524Z,102321.58
2018-10-03T23:22:56.840Z,102311.56
2018-10-03T23:25:25.352Z,102321.39
2018-10-03T23:27:53.702Z,102323.17
2018-10-03T23:30:22.052Z,102326.09
2018-10-03T23:32:50.441Z,102328.05
2018-10-03T23:35:18.783Z,102330.88
2018-10-03T23:37:47.108Z,102340.23
2018-10-03T23:40:16.148Z,102335.92
2018-10-03T23:42:44.556Z,102333.41
2018-10-03T23:45:12.892Z,102338.45
2018-10-03T23:47:41.241Z,102331.05
2018-10-03T23:50:09.596Z,102332.73
2018-10-03T23:52:37.936Z,102336.40
2018-10-03T23:55:06.412Z,102333.22
2018-10-03T23:57:34.834Z,102335.83
